sensor_id;sensor_type;location;lat;lon;timestamp;temperature;humidity
21944;DHT22;11136;48.778;9.126;2022-11-15T00:01:47;10.30;99.90
21944;DHT22;11136;48.778;9.126;2022-11-15T00:04:13;10.30;99.90
21944;DHT22;11136;48.778;9.126;2022-11-15T00:06:38;10.30;99.90
21944;DHT22;11136;48.778;9.126;2022-11-15T00:09:04;10.40;99.90
21944;DHT22;11136;48.778;9.126;2022-11-15T00:11:29;10.40;99.90
21944;DHT22;11136;48.778;9.126;2022-11-15T00:13:56;10.40;99.90
21944;DHT22;11136;48.778;9.126;2022-11-15T00:16:22;10.40;99.90
21944;DHT22;11136;48.778;9.126;2022-11-15T00:18:47;10.40;99.90
21944;DHT22;11136;48.778;9.126;2022-11-15T00:21:16;10.50;99.90
21944;DHT22;11136;48.778;9.126;2022-11-15T00:23:42;10.50;99.90
21944;DHT22;11136;48.778;9.126;2022-11-15T00:26:11;10.50;99.90
21944;DHT22;11136;48.778;9.126;2022-11-15T00:28:38;10.60;99.90
21944;DHT22;11136;48.778;9.126;2022-11-15T00:31:05;10.60;99.90
21944;DHT22;11136;48.778;9.126;2022-11-15T00:33:31;10.60;99.90
21944;DHT22;11136;48.778;9.126;2022-11-15T00:36:23;10.70;99.90
21944;DHT22;11136;48.778;9.126;2022-11-15T00:38:48;10.70;99.90
21944;DHT22;11136;48.778;9.126;2022-11-15T00:41:14;10.70;99.90
21944;DHT22;11136;48.778;9.126;2022-11-15T00:43:39;10.70;99.90
21944;DHT22;11136;48.778;9.126;2022-11-15T00:46:07;10.70;99.90
21944;DHT22;11136;48.778;9.126;2022-11-15T00:48:35;10.70;99.90
21944;DHT22;11136;48.778;9.126;2022-11-15T00:51:00;10.70;99.90
21944;DHT22;11136;48.778;9.126;2022-11-15T00:53:26;10.70;99.90
21944;DHT22;11136;48.778;9.126;2022-11-15T00:55:51;10.70;99.90
21944;DHT22;11136;48.778;9.126;2022-11-15T00:58:17;10.70;99.90
21944;DHT22;11136;48.778;9.126;2022-11-15T01:00:43;10.60;99.90
21944;DHT22;11136;48.778;9.126;2022-11-15T01:03:08;10.60;99.90
21944;DHT22;11136;48.778;9.126;2022-11-15T01:05:36;10.60;99.90
21944;DHT22;11136;48.778;9.126;2022-11-15T01:08:01;10.50;99.90
21944;DHT22;11136;48.778;9.126;2022-11-15T01:10:27;10.70;99.90
21944;DHT22;11136;48.778;9.126;2022-11-15T01:12:53;10.40;99.90
21944;DHT22;11136;48.778;9.126;2022-11-15T01:15:18;10.40;99.90
21944;DHT22;11136;48.778;9.126;2022-11-15T01:17:44;10.40;99.90
21944;DHT22;11136;48.778;9.126;2022-11-15T01:20:09;10.30;99.90
21944;DHT22;11136;48.778;9.126;2022-11-15T01:22:35;10.30;99.90
21944;DHT22;11136;48.778;9.126;2022-11-15T01:25:01;10.20;99.90
21944;DHT22;11136;48.778;9.126;2022-11-15T01:27:26;10.20;99.90
21944;DHT22;11136;48.778;9.126;2022-11-15T01:29:52;10.20;99.90
21944;DHT22;11136;48.778;9.126;2022-11-15T01:32:18;10.10;99.90
21944;DHT22;11136;48.778;9.126;2022-11-15T01:34:43;10.10;99.90
21944;DHT22;11136;48.778;9.126;2022-11-15T01:37:09;10.00;99.90
21944;DHT22;11136;48.778;9.126;2022-11-15T01:39:34;10.00;99.90
21944;DHT22;11136;48.778;9.126;2022-11-15T01:42:00;10.00;99.90
21944;DHT22;11136;48.778;9.126;2022-11-15T01:47:03;9.90;99.90
21944;DHT22;11136;48.778;9.126;2022-11-15T01:49:32;9.80;99.90
21944;DHT22;11136;48.778;9.126;2022-11-15T01:52:00;9.80;99.90
21944;DHT22;11136;48.778;9.126;2022-11-15T01:54:27;9.80;99.90
21944;DHT22;11136;48.778;9.126;2022-11-15T01:57:01;9.80;99.90
21944;DHT22;11136;48.778;9.126;2022-11-15T01:59:28;9.70;99.90
21944;DHT22;11136;48.778;9.126;2022-11-15T02:01:54;9.70;99.90
21944;DHT22;11136;48.778;9.126;2022-11-15T02:04:24;9.70;99.90
21944;DHT22;11136;48.778;9.126;2022-11-15T02:06:50;9.70;99.90
21944;DHT22;11136;48.778;9.126;2022-11-15T02:09:17;9.70;99.90
21944;DHT22;11136;48.778;9.126;2022-11-15T02:11:44;9.70;99.90
21944;DHT22;11136;48.778;9.126;2022-11-15T02:14:11;9.60;99.90
21944;DHT22;11136;48.778;9.126;2022-11-15T02:22:11;9.60;99.90
21944;DHT22;11136;48.778;9.126;2022-11-15T02:25:03;9.60;99.90
21944;DHT22;11136;48.778;9.126;2022-11-15T02:35:57;9.40;99.90
21944;DHT22;11136;48.778;9.126;2022-11-15T02:41:58;9.40;99.90
21944;DHT22;11136;48.778;9.126;2022-11-15T02:44:36;9.40;99.90
21944;DHT22;11136;48.778;9.126;2022-11-15T02:47:07;9.40;99.90
21944;DHT22;11136;48.778;9.126;2022-11-15T02:49:54;9.40;99.90
21944;DHT22;11136;48.778;9.126;2022-11-15T02:52:23;9.40;99.90
21944;DHT22;11136;48.778;9.126;2022-11-15T02:54:58;9.40;99.90
21944;DHT22;11136;48.778;9.126;2022-11-15T03:00:11;9.40;99.90
21944;DHT22;11136;48.778;9.126;2022-11-15T03:07:28;9.40;99.90
21944;DHT22;11136;48.778;9.126;2022-11-15T03:12:11;9.40;99.90
21944;DHT22;11136;48.778;9.126;2022-11-15T03:14:49;9.40;99.90
21944;DHT22;11136;48.778;9.126;2022-11-15T03:17:43;9.30;99.90
21944;DHT22;11136;48.778;9.126;2022-11-15T03:20:13;9.30;99.90
21944;DHT22;11136;48.778;9.126;2022-11-15T03:22:43;9.30;99.90
21944;DHT22;11136;48.778;9.126;2022-11-15T03:25:12;9.30;99.90
21944;DHT22;11136;48.778;9.126;2022-11-15T03:27:44;9.30;99.90
21944;DHT22;11136;48.778;9.126;2022-11-15T03:30:12;9.30;99.90
21944;DHT22;11136;48.778;9.126;2022-11-15T03:32:43;9.30;99.90
21944;DHT22;11136;48.778;9.126;2022-11-15T03:35:17;9.30;99.90
21944;DHT22;11136;48.778;9.126;2022-11-15T03:37:57;9.40;99.90
21944;DHT22;11136;48.778;9.126;2022-11-15T03:40:40;9.30;99.90
21944;DHT22;11136;48.778;9.126;2022-11-15T03:43:24;9.30;99.90
21944;DHT22;11136;48.778;9.126;2022-11-15T03:45:57;9.30;99.90
21944;DHT22;11136;48.778;9.126;2022-11-15T03:48:28;9.30;99.90
21944;DHT22;11136;48.778;9.126;2022-11-15T03:50:55;9.30;99.90
21944;DHT22;11136;48.778;9.126;2022-11-15T03:53:21;9.30;99.90
21944;DHT22;11136;48.778;9.126;2022-11-15T03:55:46;9.30;99.90
21944;DHT22;11136;48.778;9.126;2022-11-15T03:58:12;9.30;99.90
21944;DHT22;11136;48.778;9.126;2022-11-15T04:00:38;9.30;99.90
21944;DHT22;11136;48.778;9.126;2022-11-15T04:03:03;9.30;99.90
21944;DHT22;11136;48.778;9.126;2022-11-15T04:05:29;9.30;99.90
21944;DHT22;11136;48.778;9.126;2022-11-15T04:07:54;9.30;99.90
21944;DHT22;11136;48.778;9.126;2022-11-15T04:10:20;9.30;99.90
21944;DHT22;11136;48.778;9.126;2022-11-15T04:12:46;9.40;99.90
21944;DHT22;11136;48.778;9.126;2022-11-15T04:15:21;9.40;99.90
21944;DHT22;11136;48.778;9.126;2022-11-15T04:17:50;9.40;99.90
21944;DHT22;11136;48.778;9.126;2022-11-15T04:20:27;9.40;99.90
21944;DHT22;11136;48.778;9.126;2022-11-15T04:23:12;9.40;99.90
21944;DHT22;11136;48.778;9.126;2022-11-15T04:26:00;9.40;99.90
21944;DHT22;11136;48.778;9.126;2022-11-15T04:28:26;9.50;99.90
21944;DHT22;11136;48.778;9.126;2022-11-15T04:30:52;9.50;99.90
21944;DHT22;11136;48.778;9.126;2022-11-15T04:33:18;9.50;99.90
21944;DHT22;11136;48.778;9.126;2022-11-15T04:35:44;9.50;99.90
21944;DHT22;11136;48.778;9.126;2022-11-15T04:38:29;9.60;99.90
21944;DHT22;11136;48.778;9.126;2022-11-15T04:40:55;9.60;99.90
21944;DHT22;11136;48.778;9.126;2022-11-15T04:43:20;9.60;99.90
21944;DHT22;11136;48.778;9.126;2022-11-15T04:45:46;9.60;99.90
21944;DHT22;11136;48.778;9.126;2022-11-15T04:48:11;9.60;99.90
21944;DHT22;11136;48.778;9.126;2022-11-15T04:50:37;9.70;99.90
21944;DHT22;11136;48.778;9.126;2022-11-15T04:53:02;9.70;99.90
21944;DHT22;11136;48.778;9.126;2022-11-15T04:55:28;9.70;99.90
21944;DHT22;11136;48.778;9.126;2022-11-15T04:57:58;9.70;99.90
21944;DHT22;11136;48.778;9.126;2022-11-15T05:00:24;9.70;99.90
21944;DHT22;11136;48.778;9.126;2022-11-15T05:02:50;9.60;99.90
21944;DHT22;11136;48.778;9.126;2022-11-15T05:05:34;9.60;99.90
21944;DHT22;11136;48.778;9.126;2022-11-15T05:08:00;9.60;99.90
21944;DHT22;11136;48.778;9.126;2022-11-15T05:10:25;9.60;99.90
21944;DHT22;11136;48.778;9.126;2022-11-15T05:12:51;9.60;99.90
21944;DHT22;11136;48.778;9.126;2022-11-15T05:15:16;9.60;99.90
21944;DHT22;11136;48.778;9.126;2022-11-15T05:17:42;9.60;99.90
21944;DHT22;11136;48.778;9.126;2022-11-15T05:20:08;9.60;99.90
21944;DHT22;11136;48.778;9.126;2022-11-15T05:22:33;9.60;99.90
21944;DHT22;11136;48.778;9.126;2022-11-15T05:24:59;9.50;99.90
21944;DHT22;11136;48.778;9.126;2022-11-15T05:27:24;9.50;99.90
21944;DHT22;11136;48.778;9.126;2022-11-15T05:29:50;9.50;99.90
21944;DHT22;11136;48.778;9.126;2022-11-15T05:32:16;9.50;99.90
21944;DHT22;11136;48.778;9.126;2022-11-15T05:34:43;9.50;99.90
21944;DHT22;11136;48.778;9.126;2022-11-15T05:37:08;9.40;99.90
21944;DHT22;11136;48.778;9.126;2022-11-15T05:39:34;9.50;99.90
21944;DHT22;11136;48.778;9.126;2022-11-15T05:42:14;9.50;99.90
21944;DHT22;11136;48.778;9.126;2022-11-15T05:44:45;9.50;99.90
21944;DHT22;11136;48.778;9.126;2022-11-15T05:47:15;9.50;99.90
21944;DHT22;11136;48.778;9.126;2022-11-15T05:49:43;9.50;99.90
21944;DHT22;11136;48.778;9.126;2022-11-15T05:52:12;9.50;99.90
21944;DHT22;11136;48.778;9.126;2022-11-15T05:54:39;9.50;99.90
21944;DHT22;11136;48.778;9.126;2022-11-15T05:57:05;9.50;99.90
21944;DHT22;11136;48.778;9.126;2022-11-15T05:59:31;9.50;99.90
21944;DHT22;11136;48.778;9.126;2022-11-15T06:01:57;9.50;99.90
21944;DHT22;11136;48.778;9.126;2022-11-15T06:04:23;9.50;99.90
21944;DHT22;11136;48.778;9.126;2022-11-15T06:06:49;9.50;99.90
21944;DHT22;11136;48.778;9.126;2022-11-15T06:09:14;9.40;99.90
21944;DHT22;11136;48.778;9.126;2022-11-15T06:11:40;9.40;99.90
21944;DHT22;11136;48.778;9.126;2022-11-15T06:14:05;9.40;99.90
21944;DHT22;11136;48.778;9.126;2022-11-15T06:16:31;9.40;99.90
21944;DHT22;11136;48.778;9.126;2022-11-15T06:18:57;9.40;99.90
21944;DHT22;11136;48.778;9.126;2022-11-15T06:21:22;9.40;99.90
21944;DHT22;11136;48.778;9.126;2022-11-15T06:23:48;9.40;99.90
21944;DHT22;11136;48.778;9.126;2022-11-15T06:26:14;9.40;99.90
21944;DHT22;11136;48.778;9.126;2022-11-15T06:28:40;9.40;99.90
21944;DHT22;11136;48.778;9.126;2022-11-15T06:31:08;9.40;99.90
21944;DHT22;11136;48.778;9.126;2022-11-15T06:33:34;9.40;99.90
21944;DHT22;11136;48.778;9.126;2022-11-15T06:36:04;9.40;99.90
21944;DHT22;11136;48.778;9.126;2022-11-15T06:38:30;9.40;99.90
21944;DHT22;11136;48.778;9.126;2022-11-15T06:41:04;9.40;99.90
21944;DHT22;11136;48.778;9.126;2022-11-15T06:43:31;9.40;99.90
21944;DHT22;11136;48.778;9.126;2022-11-15T06:45:59;9.40;99.90
21944;DHT22;11136;48.778;9.126;2022-11-15T06:48:25;9.50;99.90
21944;DHT22;11136;48.778;9.126;2022-11-15T06:50:56;9.50;99.90
21944;DHT22;11136;48.778;9.126;2022-11-15T06:53:23;9.50;99.90
21944;DHT22;11136;48.778;9.126;2022-11-15T06:55:49;9.50;99.90
21944;DHT22;11136;48.778;9.126;2022-11-15T06:58:14;9.50;99.90
21944;DHT22;11136;48.778;9.126;2022-11-15T07:00:40;9.60;99.90
21944;DHT22;11136;48.778;9.126;2022-11-15T07:03:06;9.60;99.90
21944;DHT22;11136;48.778;9.126;2022-11-15T07:05:32;9.60;99.90
21944;DHT22;11136;48.778;9.126;2022-11-15T07:07:58;9.60;99.90
21944;DHT22;11136;48.778;9.126;2022-11-15T07:10:24;9.60;99.90
21944;DHT22;11136;48.778;9.126;2022-11-15T07:12:51;9.60;99.90
21944;DHT22;11136;48.778;9.126;2022-11-15T07:15:18;9.70;99.90
21944;DHT22;11136;48.778;9.126;2022-11-15T07:17:44;9.70;99.90
21944;DHT22;11136;48.778;9.126;2022-11-15T07:20:11;9.70;99.90
21944;DHT22;11136;48.778;9.126;2022-11-15T07:22:38;9.70;99.90
21944;DHT22;11136;48.778;9.126;2022-11-15T07:25:04;9.80;99.90
21944;DHT22;11136;48.778;9.126;2022-11-15T07:27:30;9.80;99.90
21944;DHT22;11136;48.778;9.126;2022-11-15T07:29:55;9.80;99.90
21944;DHT22;11136;48.778;9.126;2022-11-15T07:32:21;9.90;99.90
21944;DHT22;11136;48.778;9.126;2022-11-15T07:34:46;9.90;99.90
21944;DHT22;11136;48.778;9.126;2022-11-15T07:37:12;10.00;99.90
21944;DHT22;11136;48.778;9.126;2022-11-15T07:39:38;10.10;99.90
21944;DHT22;11136;48.778;9.126;2022-11-15T07:42:03;10.10;99.90
21944;DHT22;11136;48.778;9.126;2022-11-15T07:44:47;10.30;99.90
21944;DHT22;11136;48.778;9.126;2022-11-15T07:47:13;10.40;99.90
21944;DHT22;11136;48.778;9.126;2022-11-15T07:49:38;10.60;99.90
21944;DHT22;11136;48.778;9.126;2022-11-15T07:52:04;10.50;99.90
21944;DHT22;11136;48.778;9.126;2022-11-15T07:54:30;10.50;99.90
21944;DHT22;11136;48.778;9.126;2022-11-15T07:56:55;10.50;99.90
21944;DHT22;11136;48.778;9.126;2022-11-15T07:59:21;10.60;99.90
21944;DHT22;11136;48.778;9.126;2022-11-15T08:01:46;10.70;99.90
21944;DHT22;11136;48.778;9.126;2022-11-15T08:04:12;10.70;99.90
21944;DHT22;11136;48.778;9.126;2022-11-15T08:06:38;10.80;99.90
21944;DHT22;11136;48.778;9.126;2022-11-15T08:09:03;10.90;99.90
21944;DHT22;11136;48.778;9.126;2022-11-15T08:11:29;11.00;99.90
21944;DHT22;11136;48.778;9.126;2022-11-15T08:13:55;11.10;99.90
21944;DHT22;11136;48.778;9.126;2022-11-15T08:16:20;11.20;99.90
21944;DHT22;11136;48.778;9.126;2022-11-15T08:18:46;11.30;99.90
21944;DHT22;11136;48.778;9.126;2022-11-15T08:21:16;11.40;99.90
21944;DHT22;11136;48.778;9.126;2022-11-15T08:23:43;11.50;99.90
21944;DHT22;11136;48.778;9.126;2022-11-15T08:26:08;11.60;99.90
21944;DHT22;11136;48.778;9.126;2022-11-15T08:28:34;11.70;99.90
21944;DHT22;11136;48.778;9.126;2022-11-15T08:31:00;11.90;99.90
21944;DHT22;11136;48.778;9.126;2022-11-15T08:33:25;12.00;99.90
21944;DHT22;11136;48.778;9.126;2022-11-15T08:35:51;12.10;99.90
21944;DHT22;11136;48.778;9.126;2022-11-15T08:38:16;12.10;99.90
21944;DHT22;11136;48.778;9.126;2022-11-15T08:40:42;12.20;99.90
21944;DHT22;11136;48.778;9.126;2022-11-15T08:43:07;12.30;99.90
21944;DHT22;11136;48.778;9.126;2022-11-15T08:45:34;12.30;99.90
21944;DHT22;11136;48.778;9.126;2022-11-15T08:48:03;12.40;99.90
21944;DHT22;11136;48.778;9.126;2022-11-15T08:50:30;12.50;99.90
21944;DHT22;11136;48.778;9.126;2022-11-15T08:52:55;12.50;99.90
21944;DHT22;11136;48.778;9.126;2022-11-15T08:55:21;12.60;99.90
21944;DHT22;11136;48.778;9.126;2022-11-15T08:57:46;12.70;99.90
21944;DHT22;11136;48.778;9.126;2022-11-15T09:00:12;12.70;99.90
21944;DHT22;11136;48.778;9.126;2022-11-15T09:02:39;12.80;99.90
21944;DHT22;11136;48.778;9.126;2022-11-15T09:05:05;12.90;99.90
21944;DHT22;11136;48.778;9.126;2022-11-15T09:07:31;13.00;99.90
21944;DHT22;11136;48.778;9.126;2022-11-15T09:09:57;13.00;99.90
21944;DHT22;11136;48.778;9.126;2022-11-15T09:12:23;13.10;99.90
21944;DHT22;11136;48.778;9.126;2022-11-15T09:14:49;13.10;99.90
21944;DHT22;11136;48.778;9.126;2022-11-15T09:17:14;13.20;99.90
21944;DHT22;11136;48.778;9.126;2022-11-15T09:19:40;13.30;99.90
21944;DHT22;11136;48.778;9.126;2022-11-15T09:22:07;13.30;99.90
21944;DHT22;11136;48.778;9.126;2022-11-15T09:24:33;13.40;99.90
21944;DHT22;11136;48.778;9.126;2022-11-15T09:26:59;13.40;99.90
21944;DHT22;11136;48.778;9.126;2022-11-15T09:29:24;13.50;99.90
21944;DHT22;11136;48.778;9.126;2022-11-15T09:31:52;13.50;99.90
21944;DHT22;11136;48.778;9.126;2022-11-15T09:34:17;13.60;99.90
21944;DHT22;11136;48.778;9.126;2022-11-15T09:36:43;13.60;99.90
21944;DHT22;11136;48.778;9.126;2022-11-15T09:39:09;13.70;99.90
21944;DHT22;11136;48.778;9.126;2022-11-15T09:44:53;13.90;99.90
21944;DHT22;11136;48.778;9.126;2022-11-15T09:50:10;14.10;99.90
21944;DHT22;11136;48.778;9.126;2022-11-15T09:52:36;14.30;99.90
21944;DHT22;11136;48.778;9.126;2022-11-15T09:55:05;14.30;99.90
21944;DHT22;11136;48.778;9.126;2022-11-15T09:57:45;14.40;99.90
21944;DHT22;11136;48.778;9.126;2022-11-15T10:00:21;14.40;99.90
21944;DHT22;11136;48.778;9.126;2022-11-15T10:03:18;14.40;99.90
21944;DHT22;11136;48.778;9.126;2022-11-15T10:05:46;14.40;99.90
21944;DHT22;11136;48.778;9.126;2022-11-15T10:10:56;14.40;99.90
21944;DHT22;11136;48.778;9.126;2022-11-15T10:13:28;14.40;99.90
21944;DHT22;11136;48.778;9.126;2022-11-15T10:18:40;14.30;99.90
21944;DHT22;11136;48.778;9.126;2022-11-15T10:21:51;14.30;99.90
21944;DHT22;11136;48.778;9.126;2022-11-15T10:24:23;14.30;99.90
21944;DHT22;11136;48.778;9.126;2022-11-15T10:26:50;14.30;99.90
21944;DHT22;11136;48.778;9.126;2022-11-15T10:29:19;14.30;99.90
21944;DHT22;11136;48.778;9.126;2022-11-15T10:31:45;14.30;99.90
21944;DHT22;11136;48.778;9.126;2022-11-15T10:34:20;14.30;99.90
21944;DHT22;11136;48.778;9.126;2022-11-15T10:36:56;14.30;99.90
21944;DHT22;11136;48.778;9.126;2022-11-15T10:39:22;14.30;99.90
21944;DHT22;11136;48.778;9.126;2022-11-15T10:41:48;14.30;99.90
21944;DHT22;11136;48.778;9.126;2022-11-15T10:44:18;14.30;99.90
21944;DHT22;11136;48.778;9.126;2022-11-15T10:49:24;14.30;99.90
21944;DHT22;11136;48.778;9.126;2022-11-15T10:56:58;14.40;99.90
21944;DHT22;11136;48.778;9.126;2022-11-15T10:59:29;14.40;99.90
21944;DHT22;11136;48.778;9.126;2022-11-15T11:01:56;14.40;99.90
21944;DHT22;11136;48.778;9.126;2022-11-15T11:04:22;14.40;99.90
21944;DHT22;11136;48.778;9.126;2022-11-15T11:06:56;14.40;99.90
21944;DHT22;11136;48.778;9.126;2022-11-15T11:09:23;14.40;99.90
21944;DHT22;11136;48.778;9.126;2022-11-15T11:11:50;14.40;99.90
21944;DHT22;11136;48.778;9.126;2022-11-15T11:16:53;14.40;99.90
21944;DHT22;11136;48.778;9.126;2022-11-15T11:22:16;14.50;99.90
21944;DHT22;11136;48.778;9.126;2022-11-15T11:27:37;14.50;99.90
21944;DHT22;11136;48.778;9.126;2022-11-15T11:30:20;14.50;99.90
21944;DHT22;11136;48.778;9.126;2022-11-15T11:35:35;14.60;99.90
21944;DHT22;11136;48.778;9.126;2022-11-15T11:44:17;14.70;99.90
21944;DHT22;11136;48.778;9.126;2022-11-15T11:46:58;14.80;99.90
21944;DHT22;11136;48.778;9.126;2022-11-15T11:49:33;14.80;99.90
21944;DHT22;11136;48.778;9.126;2022-11-15T11:52:17;14.80;99.90
21944;DHT22;11136;48.778;9.126;2022-11-15T11:54:57;14.80;99.90
21944;DHT22;11136;48.778;9.126;2022-11-15T11:57:33;14.80;99.90
21944;DHT22;11136;48.778;9.126;2022-11-15T12:00:24;14.90;99.90
21944;DHT22;11136;48.778;9.126;2022-11-15T12:05:42;15.00;99.90
21944;DHT22;11136;48.778;9.126;2022-11-15T12:10:46;15.20;99.90
21944;DHT22;11136;48.778;9.126;2022-11-15T12:13:23;15.30;99.90
21944;DHT22;11136;48.778;9.126;2022-11-15T12:15:58;15.30;99.90
21944;DHT22;11136;48.778;9.126;2022-11-15T12:18:25;15.30;99.90
21944;DHT22;11136;48.778;9.126;2022-11-15T12:21:02;15.40;99.90
21944;DHT22;11136;48.778;9.126;2022-11-15T12:23:32;15.40;99.90
21944;DHT22;11136;48.778;9.126;2022-11-15T12:26:07;15.40;99.90
21944;DHT22;11136;48.778;9.126;2022-11-15T12:28:57;15.40;99.90
21944;DHT22;11136;48.778;9.126;2022-11-15T12:34:02;15.40;99.90
21944;DHT22;11136;48.778;9.126;2022-11-15T12:36:34;15.40;99.90
21944;DHT22;11136;48.778;9.126;2022-11-15T12:39:05;15.30;99.90
21944;DHT22;11136;48.778;9.126;2022-11-15T12:41:38;15.30;99.90
21944;DHT22;11136;48.778;9.126;2022-11-15T12:44:09;15.30;99.90
21944;DHT22;11136;48.778;9.126;2022-11-15T13:02:37;15.20;99.90
21944;DHT22;11136;48.778;9.126;2022-11-15T13:17:46;15.10;99.90
21944;DHT22;11136;48.778;9.126;2022-11-15T13:22:48;15.10;99.90
21944;DHT22;11136;48.778;9.126;2022-11-15T13:30:35;15.00;99.90
21944;DHT22;11136;48.778;9.126;2022-11-15T13:33:08;15.00;99.90
21944;DHT22;11136;48.778;9.126;2022-11-15T13:35:39;15.00;99.90
21944;DHT22;11136;48.778;9.126;2022-11-15T13:38:05;15.00;99.90
21944;DHT22;11136;48.778;9.126;2022-11-15T13:40:37;15.00;99.90
21944;DHT22;11136;48.778;9.126;2022-11-15T13:48:35;15.00;99.90
21944;DHT22;11136;48.778;9.126;2022-11-15T13:51:06;15.00;99.90
21944;DHT22;11136;48.778;9.126;2022-11-15T13:53:33;15.00;99.90
21944;DHT22;11136;48.778;9.126;2022-11-15T13:56:01;15.00;99.90
21944;DHT22;11136;48.778;9.126;2022-11-15T13:58:29;15.00;99.90
21944;DHT22;11136;48.778;9.126;2022-11-15T14:01:00;15.00;99.90
21944;DHT22;11136;48.778;9.126;2022-11-15T14:03:31;15.00;99.90
21944;DHT22;11136;48.778;9.126;2022-11-15T14:06:10;15.00;99.90
21944;DHT22;11136;48.778;9.126;2022-11-15T14:08:42;15.00;99.90
21944;DHT22;11136;48.778;9.126;2022-11-15T14:11:17;15.00;99.90
21944;DHT22;11136;48.778;9.126;2022-11-15T14:14:03;14.90;99.90
21944;DHT22;11136;48.778;9.126;2022-11-15T14:19:04;14.90;99.90
21944;DHT22;11136;48.778;9.126;2022-11-15T14:21:30;14.90;99.90
21944;DHT22;11136;48.778;9.126;2022-11-15T14:26:41;14.80;99.90
21944;DHT22;11136;48.778;9.126;2022-11-15T14:29:28;14.80;99.90
21944;DHT22;11136;48.778;9.126;2022-11-15T14:32:11;14.80;99.90
21944;DHT22;11136;48.778;9.126;2022-11-15T14:34:37;14.80;99.90
21944;DHT22;11136;48.778;9.126;2022-11-15T14:37:03;14.80;99.90
21944;DHT22;11136;48.778;9.126;2022-11-15T14:39:29;14.80;99.90
21944;DHT22;11136;48.778;9.126;2022-11-15T14:41:55;14.80;99.90
21944;DHT22;11136;48.778;9.126;2022-11-15T14:44:20;14.80;99.90
21944;DHT22;11136;48.778;9.126;2022-11-15T14:46:47;14.80;99.90
21944;DHT22;11136;48.778;9.126;2022-11-15T14:49:20;14.80;99.90
21944;DHT22;11136;48.778;9.126;2022-11-15T14:51:46;14.80;99.90
21944;DHT22;11136;48.778;9.126;2022-11-15T14:54:11;14.80;99.90
21944;DHT22;11136;48.778;9.126;2022-11-15T14:56:37;14.80;99.90
21944;DHT22;11136;48.778;9.126;2022-11-15T14:59:02;14.80;99.90
21944;DHT22;11136;48.778;9.126;2022-11-15T15:01:28;14.70;99.90
21944;DHT22;11136;48.778;9.126;2022-11-15T15:03:54;14.80;99.90
21944;DHT22;11136;48.778;9.126;2022-11-15T15:06:22;14.70;99.90
21944;DHT22;11136;48.778;9.126;2022-11-15T15:08:48;14.70;99.90
21944;DHT22;11136;48.778;9.126;2022-11-15T15:11:21;14.70;99.90
21944;DHT22;11136;48.778;9.126;2022-11-15T15:13:47;14.60;99.90
21944;DHT22;11136;48.778;9.126;2022-11-15T15:16:13;14.60;99.90
21944;DHT22;11136;48.778;9.126;2022-11-15T15:18:38;14.60;99.90
21944;DHT22;11136;48.778;9.126;2022-11-15T15:21:18;14.90;99.90
21944;DHT22;11136;48.778;9.126;2022-11-15T15:23:44;14.60;99.90
21944;DHT22;11136;48.778;9.126;2022-11-15T15:26:10;14.50;99.90
21944;DHT22;11136;48.778;9.126;2022-11-15T15:28:35;14.50;99.90
21944;DHT22;11136;48.778;9.126;2022-11-15T15:31:01;14.50;99.90
21944;DHT22;11136;48.778;9.126;2022-11-15T15:33:27;14.40;99.90
21944;DHT22;11136;48.778;9.126;2022-11-15T15:35:52;14.40;99.90
21944;DHT22;11136;48.778;9.126;2022-11-15T15:38:18;14.30;99.90
21944;DHT22;11136;48.778;9.126;2022-11-15T15:40:43;14.30;99.90
21944;DHT22;11136;48.778;9.126;2022-11-15T15:43:09;14.30;99.90
21944;DHT22;11136;48.778;9.126;2022-11-15T15:45:37;14.30;99.90
21944;DHT22;11136;48.778;9.126;2022-11-15T15:48:04;14.20;99.90
21944;DHT22;11136;48.778;9.126;2022-11-15T15:50:33;14.20;99.90
21944;DHT22;11136;48.778;9.126;2022-11-15T15:53:01;14.20;99.90
21944;DHT22;11136;48.778;9.126;2022-11-15T15:55:27;14.10;99.90
21944;DHT22;11136;48.778;9.126;2022-11-15T15:57:53;14.10;99.90
21944;DHT22;11136;48.778;9.126;2022-11-15T16:00:19;14.10;99.90
21944;DHT22;11136;48.778;9.126;2022-11-15T16:02:45;14.00;99.90
21944;DHT22;11136;48.778;9.126;2022-11-15T16:05:12;14.00;99.90
21944;DHT22;11136;48.778;9.126;2022-11-15T16:07:38;14.00;99.90
21944;DHT22;11136;48.778;9.126;2022-11-15T16:10:30;14.00;99.90
21944;DHT22;11136;48.778;9.126;2022-11-15T16:12:57;14.00;99.90
21944;DHT22;11136;48.778;9.126;2022-11-15T16:15:25;14.00;99.90
21944;DHT22;11136;48.778;9.126;2022-11-15T16:17:53;13.90;99.90
21944;DHT22;11136;48.778;9.126;2022-11-15T16:20:40;13.90;99.90
21944;DHT22;11136;48.778;9.126;2022-11-15T16:23:09;13.90;99.90
21944;DHT22;11136;48.778;9.126;2022-11-15T16:25:39;13.90;99.90
21944;DHT22;11136;48.778;9.126;2022-11-15T16:28:24;13.90;99.90
21944;DHT22;11136;48.778;9.126;2022-11-15T16:31:08;13.90;99.90
21944;DHT22;11136;48.778;9.126;2022-11-15T16:33:35;13.90;99.90
21944;DHT22;11136;48.778;9.126;2022-11-15T16:36:03;13.90;99.90
21944;DHT22;11136;48.778;9.126;2022-11-15T16:38:28;13.90;99.90
21944;DHT22;11136;48.778;9.126;2022-11-15T16:40:54;13.90;99.90
21944;DHT22;11136;48.778;9.126;2022-11-15T16:43:19;13.90;99.90
21944;DHT22;11136;48.778;9.126;2022-11-15T16:45:45;13.90;99.90
21944;DHT22;11136;48.778;9.126;2022-11-15T16:48:29;13.90;99.90
21944;DHT22;11136;48.778;9.126;2022-11-15T16:50:56;13.90;99.90
21944;DHT22;11136;48.778;9.126;2022-11-15T16:53:22;13.90;99.90
21944;DHT22;11136;48.778;9.126;2022-11-15T16:55:48;13.90;99.90
21944;DHT22;11136;48.778;9.126;2022-11-15T16:58:13;13.90;99.90
21944;DHT22;11136;48.778;9.126;2022-11-15T17:00:39;13.90;99.90
21944;DHT22;11136;48.778;9.126;2022-11-15T17:03:05;13.90;99.90
21944;DHT22;11136;48.778;9.126;2022-11-15T17:05:31;13.90;99.90
21944;DHT22;11136;48.778;9.126;2022-11-15T17:07:57;13.80;99.90
21944;DHT22;11136;48.778;9.126;2022-11-15T17:10:23;13.80;99.90
21944;DHT22;11136;48.778;9.126;2022-11-15T17:12:50;13.80;99.90
21944;DHT22;11136;48.778;9.126;2022-11-15T17:15:16;13.80;99.90
21944;DHT22;11136;48.778;9.126;2022-11-15T17:17:42;13.80;99.90
21944;DHT22;11136;48.778;9.126;2022-11-15T17:20:16;13.80;99.90
21944;DHT22;11136;48.778;9.126;2022-11-15T17:22:42;13.80;99.90
21944;DHT22;11136;48.778;9.126;2022-11-15T17:25:09;13.80;99.90
21944;DHT22;11136;48.778;9.126;2022-11-15T17:27:35;13.80;99.90
21944;DHT22;11136;48.778;9.126;2022-11-15T17:30:00;13.70;99.90
21944;DHT22;11136;48.778;9.126;2022-11-15T17:32:26;13.70;99.90
21944;DHT22;11136;48.778;9.126;2022-11-15T17:34:51;13.70;99.90
21944;DHT22;11136;48.778;9.126;2022-11-15T17:37:17;13.70;99.90
21944;DHT22;11136;48.778;9.126;2022-11-15T17:39:43;13.70;99.90
21944;DHT22;11136;48.778;9.126;2022-11-15T17:42:08;13.70;99.90
21944;DHT22;11136;48.778;9.126;2022-11-15T17:44:34;13.70;99.90
21944;DHT22;11136;48.778;9.126;2022-11-15T17:46:59;13.70;99.90